Terminal Aerodrome Forecast
Issued by NWS Cleveland, OH

Home | Current Version | Previous Version | Text Only | Print | Product List | Glossary Off
Versions: 1 2 3 4 5 6 7 8 9 10 11 12 13 14 15 16 17

000
FTUS41 KCLE 260814 AAA
TAFYNG
TAF AMD
KYNG 260814Z 2608/2706 30006KT P6SM BKN030
     FM260900 28004KT 6SM BR SCT030
      TEMPO 2609/2613 2SM BR SCT008 BKN030
     FM261400 32006KT P6SM SCT250
     FM270000 34004KT P6SM SCT250=

USA.gov is the U.S. government's official web portal to all federal, state and local government web resources and services.